Totoro — FG4097 — position and weather

sailwx.info

Track history (hours):
 
Tides and Currents Weather Stations Pressure Air Temp Water Temp Dewpoint Dewpoint Depression Visibility Wind Speed Wind Dir Waves Ship Positions

Totoro

Last reported at 2017-Oct-21 13:06 UTC. Time now 2017-Nov-21 01:02 UTC.
Position N 38°29' W 009°49'.
Warning: this ship's position is 30 days out of date.

Length 15 m.

Type: Sailing vessel. MMSI: 227106940.

Date/timePositionNaut miles runAvg speedWind from/ knotsBaromVisibWave heightAir tempDewpointWater temp
2017-Oct-21 13:06N 38°29' W 009°49'1 6.5
2017-Oct-21 13:00N 38°30' W 009°48'3 6.4
2017-Oct-21 12:31N 38°31' W 009°45'3 6.7
2017-Oct-21 12:00N 38°33' W 009°41'4 7.4
2017-Oct-21 11:30N 38°35' W 009°37'4 7.3
2017-Oct-21 11:00N 38°36' W 009°33'4 7.3
2017-Oct-21 10:29N 38°39' W 009°29'3 6.2
2017-Oct-21 10:00N 38°41' W 009°26'  
2017-Oct-18 20:28N 38°42' W 009°25'0 0.1
2017-Oct-18 19:58N 38°42' W 009°25'2 4.0
2017-Oct-18 19:28N 38°41' W 009°23'2 4.3
2017-Oct-18 19:00N 38°40' W 009°20'3 5.8
2017-Oct-18 18:25N 38°41' W 009°16'2 5.7
2017-Oct-18 18:00N 38°41' W 009°13'  
2017-Oct-14 11:29N 38°39' W 009°06'1 1.7
2017-Oct-14 10:57N 38°39' W 009°06'4 0.1
2017-Oct-12 12:43N 38°42' W 009°09'1 2.8
2017-Oct-12 12:27N 38°42' W 009°10'3 4.0
2017-Oct-12 11:46N 38°41' W 009°14'1 4.2
2017-Oct-12 11:27N 38°42' W 009°15'2 3.6
2017-Oct-12 11:00N 38°41' W 009°17'2 2.7
2017-Oct-12 10:26N 38°40' W 009°19'2 4.0
2017-Oct-12 09:55N 38°40' W 009°22'1 3.3
2017-Oct-12 09:29N 38°40' W 009°23'1 2.8
2017-Oct-12 08:59N 38°39' W 009°25'2 3.2
2017-Oct-12 08:30N 38°38' W 009°27'2 4.5
2017-Oct-12 08:00N 38°37' W 009°29'1 2.1
2017-Oct-12 07:29N 38°38' W 009°30'3 4.0
2017-Oct-12 06:51N 38°40' W 009°30'6 4.0
2017-Oct-12 05:28N 38°46' W 009°31'2 3.6
2017-Oct-12 05:00N 38°47' W 009°31'2 3.7
2017-Oct-12 04:30N 38°49' W 009°32'2 3.8
2017-Oct-12 04:00N 38°51' W 009°32'2 4.2
2017-Oct-12 03:30N 38°53' W 009°32'2 4.0
2017-Oct-12 03:00N 38°55' W 009°32'2 3.4
2017-Oct-12 02:30N 38°57' W 009°32'2 4.2
2017-Oct-12 01:59N 38°59' W 009°32'2 4.1
2017-Oct-12 01:30N 39°01' W 009°32'2 4.2
2017-Oct-12 01:00N 39°03' W 009°32'2 4.5
2017-Oct-12 00:30N 39°05' W 009°32'3 5.3
2017-Oct-12 00:00N 39°07' W 009°29'  
Track history (hours):
 
Tides and Currents Weather Stations Pressure Air Temp Water Temp Dewpoint Dewpoint Depression Visibility Wind Speed Wind Dir Waves Ship Positions

Totoro

Last reported at 2017-Oct-21 13:06 UTC. Time now 2017-Nov-21 01:02 UTC.
Position N 38°29' W 009°49'.
Warning: this ship's position is 30 days out of date.

Length 15 m.

Type: Sailing vessel. MMSI: 227106940.

Date/timePositionNaut miles runAvg speedWind from/ knotsBaromVisibWave heightAir tempDewpointWater temp
2017-Oct-21 13:06N 38°29' W 009°49'1 6.5
2017-Oct-21 13:00N 38°30' W 009°48'3 6.4
2017-Oct-21 12:31N 38°31' W 009°45'3 6.7
2017-Oct-21 12:00N 38°33' W 009°41'4 7.4
2017-Oct-21 11:30N 38°35' W 009°37'4 7.3
2017-Oct-21 11:00N 38°36' W 009°33'4 7.3
2017-Oct-21 10:29N 38°39' W 009°29'3 6.2
2017-Oct-21 10:00N 38°41' W 009°26'  
2017-Oct-18 20:28N 38°42' W 009°25'0 0.1
2017-Oct-18 19:58N 38°42' W 009°25'2 4.0
2017-Oct-18 19:28N 38°41' W 009°23'2 4.3
2017-Oct-18 19:00N 38°40' W 009°20'3 5.8
2017-Oct-18 18:25N 38°41' W 009°16'2 5.7
2017-Oct-18 18:00N 38°41' W 009°13'  
2017-Oct-14 11:29N 38°39' W 009°06'1 1.7
2017-Oct-14 10:57N 38°39' W 009°06'4 0.1
2017-Oct-12 12:43N 38°42' W 009°09'1 2.8
2017-Oct-12 12:27N 38°42' W 009°10'3 4.0
2017-Oct-12 11:46N 38°41' W 009°14'1 4.2
2017-Oct-12 11:27N 38°42' W 009°15'2 3.6
2017-Oct-12 11:00N 38°41' W 009°17'2 2.7
2017-Oct-12 10:26N 38°40' W 009°19'2 4.0
2017-Oct-12 09:55N 38°40' W 009°22'1 3.3
2017-Oct-12 09:29N 38°40' W 009°23'1 2.8
2017-Oct-12 08:59N 38°39' W 009°25'2 3.2
2017-Oct-12 08:30N 38°38' W 009°27'2 4.5
2017-Oct-12 08:00N 38°37' W 009°29'1 2.1
2017-Oct-12 07:29N 38°38' W 009°30'3 4.0
2017-Oct-12 06:51N 38°40' W 009°30'6 4.0
2017-Oct-12 05:28N 38°46' W 009°31'2 3.6
2017-Oct-12 05:00N 38°47' W 009°31'2 3.7
2017-Oct-12 04:30N 38°49' W 009°32'2 3.8
2017-Oct-12 04:00N 38°51' W 009°32'2 4.2
2017-Oct-12 03:30N 38°53' W 009°32'2 4.0
2017-Oct-12 03:00N 38°55' W 009°32'2 3.4
2017-Oct-12 02:30N 38°57' W 009°32'2 4.2
2017-Oct-12 01:59N 38°59' W 009°32'2 4.1
2017-Oct-12 01:30N 39°01' W 009°32'2 4.2
2017-Oct-12 01:00N 39°03' W 009°32'2 4.5
2017-Oct-12 00:30N 39°05' W 009°32'3 5.3
2017-Oct-12 00:00N 39°07' W 009°29'  

Dump ship's entire track history